Time;durP1;ratioP1;P1;durP2;ratioP2;P2;SDS_P1;SDS_P2;PMS_P1;PMS_P2;Temp;Humidity;BMP_temperature;BMP_pressure;BME280_temperature;BME280_humidity;BME280_pressure;Samples;Min_cycle;Max_cycle;Signal;HPM_P1;HPM_P2
2023/10/01 00:02:08;;;;;;;6.90;3.00;;;;;;;16.13;82.09;102274.19;6142015;28;20231;-70
2023/10/01 00:05:29;;;;;;;8.03;2.63;;;;;;;16.15;82.53;102255.00;6140341;29;20227;-69
2023/10/01 00:08:53;;;;;;;5.73;2.50;;;;;;;16.09;82.88;102263.72;6141703;29;20223;-70
2023/10/01 00:12:14;;;;;;;4.10;2.60;;;;;;;16.10;82.93;102252.72;6139030;28;20227;-70
2023/10/01 00:15:37;;;;;;;5.50;2.70;;;;;;;16.07;83.20;102257.56;6137720;29;20594;-69
2023/10/01 00:18:59;;;;;;;5.40;1.90;;;;;;;15.97;83.46;102261.13;6141034;29;20223;-69
2023/10/01 00:22:20;;;;;;;5.63;3.20;;;;;;;15.96;83.63;102264.81;6141110;28;20227;-69
2023/10/01 00:25:43;;;;;;;6.83;2.27;;;;;;;15.90;83.56;102270.81;6138527;28;20231;-69
2023/10/01 00:29:04;;;;;;;4.20;2.13;;;;;;;15.96;83.33;102261.22;6135427;29;20310;-69
2023/10/01 00:32:28;;;;;;;5.37;2.73;;;;;;;15.90;84.09;102257.22;6126910;29;20270;-69
2023/10/01 00:35:48;;;;;;;4.80;2.28;;;;;;;16.04;83.84;102257.84;6127867;29;20230;-69
2023/10/01 00:39:09;;;;;;;5.70;1.97;;;;;;;15.89;83.43;102241.91;6139472;28;20239;-69
2023/10/01 00:42:33;;;;;;;10.30;2.57;;;;;;;15.92;83.76;102236.19;6133534;28;20239;-69
2023/10/01 00:45:54;;;;;;;3.93;2.10;;;;;;;15.86;84.17;102238.59;6132957;28;20227;-70
2023/10/01 00:49:17;;;;;;;4.73;2.20;;;;;;;15.81;84.19;102240.88;6136909;28;20581;-69
2023/10/01 00:52:38;;;;;;;6.37;2.47;;;;;;;15.90;84.09;102221.84;6136277;29;20230;-70
2023/10/01 00:56:00;;;;;;;7.57;2.40;;;;;;;15.90;84.46;102221.84;6134511;28;20223;-70
2023/10/01 00:59:22;;;;;;;8.57;2.40;;;;;;;16.05;84.37;102224.19;6140033;28;20243;-69
2023/10/01 01:02:56;;;;;;;3.07;2.67;;;;;;;16.15;83.92;102225.06;6143391;28;20302;-70
2023/10/01 01:06:22;;;;;;;6.63;3.07;;;;;;;16.19;84.29;102219.22;6138532;28;20234;-70
2023/10/01 01:09:45;;;;;;;7.30;2.87;;;;;;;16.26;84.57;102211.34;6132478;28;20621;-70
2023/10/01 01:13:07;;;;;;;6.75;2.97;;;;;;;16.27;84.70;102213.09;6143271;28;20267;-70
2023/10/01 01:16:29;;;;;;;7.45;2.70;;;;;;;15.94;86.13;102214.28;6138438;29;20243;-70
2023/10/01 01:19:52;;;;;;;4.37;2.17;;;;;;;15.93;86.82;102205.28;6126892;28;20231;-70
2023/10/01 01:23:18;;;;;;;4.57;2.05;;;;;;;16.08;87.75;102204.88;6126457;28;20231;-69
2023/10/01 01:26:41;;;;;;;5.07;2.00;;;;;;;16.13;87.51;102205.31;6133298;29;20235;-70
2023/10/01 01:30:07;;;;;;;6.50;2.60;;;;;;;16.12;88.08;102198.16;6130443;28;20232;-70
2023/10/01 01:33:31;;;;;;;4.87;2.60;;;;;;;16.09;88.42;102209.31;6137869;28;20243;-71
2023/10/01 01:36:53;;;;;;;3.77;2.43;;;;;;;15.98;89.24;102219.31;6135287;28;20232;-70
2023/10/01 01:40:24;;;;;;;3.73;2.50;;;;;;;15.89;90.34;102216.56;6139798;28;20235;-70
2023/10/01 01:43:46;;;;;;;4.73;3.30;;;;;;;15.90;90.43;102219.13;6130037;28;20233;-70
2023/10/01 01:47:08;;;;;;;2.57;2.30;;;;;;;15.85;90.76;102215.97;6140392;29;20251;-70
2023/10/01 01:50:31;;;;;;;2.90;2.23;;;;;;;15.71;91.46;102204.59;6120766;28;20246;-70
2023/10/01 01:53:53;;;;;;;8.20;3.40;;;;;;;15.85;91.55;102213.22;6115671;29;20329;-71
2023/10/01 01:57:17;;;;;;;5.03;3.20;;;;;;;15.84;91.93;102200.66;6122433;29;20556;-70
2023/10/01 02:00:46;;;;;;;8.77;4.30;;;;;;;15.90;91.60;102196.50;6140436;29;20234;-70
2023/10/01 02:04:07;;;;;;;4.67;3.13;;;;;;;15.74;92.38;102198.88;6135788;28;20224;-70
2023/10/01 02:07:28;;;;;;;4.83;3.00;;;;;;;15.88;91.87;102195.78;6122667;28;20238;-70
2023/10/01 02:10:50;;;;;;;4.50;2.53;;;;;;;15.82;91.82;102194.50;6130435;28;20235;-70
2023/10/01 02:14:29;;;;;;;3.97;2.60;;;;;;;15.88;91.48;102188.50;6118988;29;20240;-70
2023/10/01 02:17:52;;;;;;;3.90;2.47;;;;;;;15.74;91.94;102179.84;6136394;29;20228;-71
2023/10/01 02:21:17;;;;;;;6.80;3.23;;;;;;;15.79;91.31;102181.16;6140265;29;20227;-70
2023/10/01 02:24:54;;;;;;;3.77;2.57;;;;;;;15.70;90.93;102184.72;6124839;28;20239;-70
2023/10/01 02:28:15;;;;;;;3.47;3.10;;;;;;;15.76;91.05;102191.47;6141211;29;20239;-71
2023/10/01 02:31:39;;;;;;;5.37;2.47;;;;;;;15.72;90.96;102188.16;6140443;29;20231;-70
2023/10/01 02:34:59;;;;;;;3.90;3.07;;;;;;;15.73;90.29;102191.72;6136508;29;20239;-70
2023/10/01 02:38:43;;;;;;;5.67;2.80;;;;;;;15.78;90.47;102190.31;6137793;28;20239;-70
2023/10/01 02:42:09;;;;;;;4.77;3.60;;;;;;;15.75;90.09;102201.47;6138408;29;20251;-71
2023/10/01 02:45:34;;;;;;;4.03;3.47;;;;;;;15.76;90.20;102183.31;6139873;29;20251;-70
2023/10/01 02:48:59;;;;;;;7.43;3.30;;;;;;;15.75;90.44;102187.03;6148868;28;20701;-70
2023/10/01 02:52:25;;;;;;;9.43;4.07;;;;;;;15.82;89.88;102189.06;6139385;28;20588;-69
2023/10/01 02:55:46;;;;;;;6.57;4.60;;;;;;;15.81;90.40;102184.59;6135301;29;20511;-70
2023/10/01 02:59:09;;;;;;;6.77;4.27;;;;;;;15.67;90.71;102167.81;6128057;29;20235;-70
2023/10/01 03:02:32;;;;;;;7.37;5.03;;;;;;;15.72;90.82;102173.69;6139057;29;20247;-70
2023/10/01 03:05:55;;;;;;;11.93;4.30;;;;;;;15.70;91.05;102178.41;6141859;29;20600;-71
2023/10/01 03:09:31;;;;;;;10.40;5.03;;;;;;;15.70;90.95;102183.84;6136757;28;20255;-70
2023/10/01 03:12:53;;;;;;;6.47;4.30;;;;;;;15.66;91.54;102185.13;6132643;28;20231;-70
2023/10/01 03:19:52;;;;;;;8.70;4.70;;;;;;;15.66;91.48;102186.00;6138742;28;20539;-70
2023/10/01 03:23:24;;;;;;;10.00;4.70;;;;;;;15.64;91.97;102178.97;6143822;28;20234;-70
2023/10/01 03:26:46;;;;;;;8.47;5.23;;;;;;;15.62;92.00;102191.84;6137725;29;20240;-70
2023/10/01 03:30:20;;;;;;;5.27;4.20;;;;;;;15.62;92.20;102181.84;6141214;29;20231;-71
2023/10/01 03:33:42;;;;;;;8.43;4.67;;;;;;;15.65;92.24;102184.25;6136315;28;20231;-70
2023/10/01 03:37:04;;;;;;;11.43;4.97;;;;;;;15.65;91.87;102181.53;6145130;28;20250;-71
2023/10/01 03:40:27;;;;;;;8.50;5.03;;;;;;;15.67;91.84;102179.53;6139881;28;20232;-70
2023/10/01 03:43:50;;;;;;;9.10;4.83;;;;;;;15.70;91.79;102176.56;6138500;28;20318;-71
2023/10/01 03:47:11;;;;;;;6.90;4.93;;;;;;;15.60;91.68;102175.66;6145314;29;20242;-70
2023/10/01 03:50:32;;;;;;;6.43;4.13;;;;;;;15.58;91.91;102172.19;6138117;28;20544;-70
2023/10/01 03:53:58;;;;;;;7.27;4.17;;;;;;;15.59;92.39;102168.50;6140421;28;20350;-69
2023/10/01 03:57:22;;;;;;;9.50;4.57;;;;;;;15.61;91.94;102160.19;6141089;28;20238;-70
2023/10/01 04:00:53;;;;;;;7.17;4.20;;;;;;;15.56;92.33;102163.31;6143646;29;20692;-70
2023/10/01 04:04:15;;;;;;;10.33;5.83;;;;;;;15.58;92.40;102155.88;6134499;28;20576;-71
2023/10/01 04:07:42;;;;;;;4.60;4.20;;;;;;;15.62;92.37;102153.78;6136450;29;20234;-70
2023/10/01 04:11:05;;;;;;;10.83;5.93;;;;;;;15.55;92.53;102144.44;6139447;28;20537;-70
2023/10/01 04:14:29;;;;;;;12.10;4.63;;;;;;;15.53;92.76;102150.03;6121845;29;20227;-70
2023/10/01 04:18:09;;;;;;;6.00;5.07;;;;;;;15.61;92.98;102155.63;6135217;29;20227;-71
2023/10/01 04:21:34;;;;;;;9.53;6.27;;;;;;;15.56;93.16;102171.47;6142038;29;20235;-70
2023/10/01 04:25:09;;;;;;;7.63;6.23;;;;;;;15.51;93.66;102175.59;6140228;28;20243;-69
2023/10/01 04:28:31;;;;;;;9.17;6.37;;;;;;;15.54;93.53;102181.63;6138112;28;20517;-70
2023/10/01 04:31:55;;;;;;;11.50;6.70;;;;;;;15.50;93.61;102169.31;6136484;28;20310;-70
2023/10/01 04:35:16;;;;;;;9.43;5.93;;;;;;;15.43;93.56;102164.56;6111245;29;20243;-70
2023/10/01 04:38:38;;;;;;;8.77;6.00;;;;;;;15.42;93.95;102166.38;6137016;29;20672;-70
2023/10/01 04:41:59;;;;;;;7.63;5.80;;;;;;;15.32;94.41;102156.44;6142881;29;20322;-70
2023/10/01 04:45:23;;;;;;;9.00;6.23;;;;;;;15.37;94.20;102151.50;6139532;28;20231;-71
2023/10/01 04:48:47;;;;;;;7.13;5.87;;;;;;;15.36;94.18;102144.31;6151543;28;20231;-71
2023/10/01 04:52:10;;;;;;;7.20;6.43;;;;;;;15.28;94.50;102136.00;6137737;28;20243;-70
2023/10/01 04:55:31;;;;;;;8.93;6.60;;;;;;;15.21;94.91;102143.81;6133202;29;20239;-70
2023/10/01 04:58:54;;;;;;;10.03;6.23;;;;;;;15.17;95.33;102136.94;6136145;29;20609;-70
2023/10/01 05:02:21;;;;;;;8.83;6.87;;;;;;;15.23;95.15;102144.53;6138896;28;20636;-70
2023/10/01 05:05:44;;;;;;;7.13;6.10;;;;;;;15.20;96.12;102151.13;6142521;29;20231;-71
2023/10/01 05:09:07;;;;;;;15.00;6.97;;;;;;;15.25;96.06;102163.44;6136174;28;20231;-71
2023/10/01 05:12:31;;;;;;;13.17;7.80;;;;;;;15.11;96.43;102161.91;6133391;28;20235;-71
2023/10/01 05:15:56;;;;;;;10.27;6.60;;;;;;;15.11;96.68;102157.34;6136739;28;20249;-71
2023/10/01 05:19:23;;;;;;;8.97;7.80;;;;;;;15.11;96.56;102157.34;6114703;29;20345;-71
2023/10/01 05:22:50;;;;;;;9.63;6.33;;;;;;;15.07;96.74;102157.75;6136621;28;20239;-70
2023/10/01 05:26:12;;;;;;;7.23;6.20;;;;;;;15.08;97.00;102159.50;6138478;28;20231;-70
2023/10/01 05:29:34;;;;;;;8.10;6.43;;;;;;;15.14;96.74;102146.19;6135667;29;20594;-70
2023/10/01 05:32:54;;;;;;;10.50;6.30;;;;;;;15.18;96.77;102149.53;6142574;29;20585;-70
2023/10/01 05:36:16;;;;;;;8.70;6.93;;;;;;;15.25;96.63;102163.44;6133626;29;20231;-69
2023/10/01 05:43:13;;;;;;;10.00;7.53;;;;;;;15.18;96.69;102165.84;6135856;28;20239;-70
2023/10/01 05:46:36;;;;;;;12.20;9.10;;;;;;;15.14;96.57;102164.38;6133231;29;20329;-70
2023/10/01 05:49:59;;;;;;;10.17;8.00;;;;;;;15.16;97.38;102163.22;6138835;28;20238;-70
2023/10/01 05:53:20;;;;;;;8.70;7.17;;;;;;;15.19;96.71;102165.69;6139762;28;20226;-70
2023/10/01 05:56:47;;;;;;;10.27;8.87;;;;;;;15.29;97.21;102183.91;6135581;28;20231;-70
2023/10/01 06:00:16;;;;;;;7.57;6.80;;;;;;;15.29;96.72;102183.91;6140022;29;20235;-70
2023/10/01 06:03:40;;;;;;;9.47;7.53;;;;;;;15.29;96.63;102192.06;6140724;29;20231;-70
2023/10/01 06:07:02;;;;;;;10.23;6.83;;;;;;;15.19;96.77;102184.72;6136198;29;20227;-70
2023/10/01 06:10:26;;;;;;;11.60;8.30;;;;;;;15.24;96.03;102181.59;6132834;28;20235;-70
2023/10/01 06:13:50;;;;;;;11.60;8.33;;;;;;;15.33;96.05;102178.09;6137278;28;20231;-70
2023/10/01 06:17:11;;;;;;;11.30;8.67;;;;;;;15.34;96.11;102184.34;6135791;28;20242;-70
2023/10/01 06:20:33;;;;;;;13.70;9.00;;;;;;;15.39;95.60;102177.53;6137053;29;20330;-71
2023/10/01 06:23:58;;;;;;;11.13;8.30;;;;;;;15.42;95.62;102181.81;6145107;28;20231;-70
2023/10/01 06:27:19;;;;;;;9.27;7.33;;;;;;;15.37;95.90;102178.66;6136768;29;20748;-70
2023/10/01 06:30:43;;;;;;;12.33;7.60;;;;;;;15.46;95.23;102188.75;6141262;29;20599;-70
2023/10/01 06:34:04;;;;;;;12.97;7.80;;;;;;;15.51;94.40;102190.06;6137995;28;20421;-69
2023/10/01 06:37:45;;;;;;;10.90;8.97;;;;;;;15.64;93.89;102178.97;6132928;29;20239;-71
2023/10/01 06:41:13;;;;;;;13.20;8.47;;;;;;;15.75;93.55;102163.41;6137017;29;20231;-70
2023/10/01 06:44:34;;;;;;;8.40;7.53;;;;;;;15.65;93.47;102191.53;6134086;29;20319;-69
2023/10/01 06:48:08;;;;;;;12.33;8.07;;;;;;;15.60;94.12;102191.97;6136207;28;20606;-71
2023/10/01 06:51:39;;;;;;;10.50;7.57;;;;;;;15.62;93.98;102191.84;6127387;28;20251;-71
2023/10/01 06:55:01;;;;;;;9.90;7.40;;;;;;;15.77;93.30;102193.19;6132333;28;20272;-70
2023/10/01 06:58:24;;;;;;;8.40;7.27;;;;;;;15.70;93.34;102194.72;6140490;29;20235;-70
2023/10/01 07:01:49;;;;;;;9.73;7.53;;;;;;;15.83;92.48;102185.31;6138221;28;20329;-70
2023/10/01 07:05:16;;;;;;;9.77;7.13;;;;;;;15.84;92.83;102189.78;6137829;28;20253;-70
2023/10/01 07:08:38;;;;;;;10.43;7.20;;;;;;;15.81;92.49;102168.28;6139980;28;20275;-70
2023/10/01 07:12:00;;;;;;;8.87;7.97;;;;;;;15.94;91.56;102168.03;6142881;28;20235;-70
2023/10/01 07:15:21;;;;;;;11.70;6.87;;;;;;;15.90;91.23;102181.06;6140158;29;20255;-70
2023/10/01 07:18:43;;;;;;;8.57;7.57;;;;;;;15.82;90.87;102188.19;6142194;28;20235;-70
2023/10/01 07:22:07;;;;;;;8.60;7.10;;;;;;;15.97;90.82;102182.22;6141653;28;20235;-71
2023/10/01 07:25:37;;;;;;;12.67;7.97;;;;;;;16.13;90.39;102181.69;6141271;28;20228;-71
2023/10/01 07:28:59;;;;;;;10.73;6.27;;;;;;;16.00;89.63;102179.22;6138322;29;20608;-70
2023/10/01 07:32:20;;;;;;;10.90;7.93;;;;;;;15.94;89.53;102185.22;6144444;28;20231;-71
2023/10/01 07:35:44;;;;;;;8.10;6.77;;;;;;;16.00;89.17;102192.81;6136435;28;20240;-70
2023/10/01 07:39:06;;;;;;;8.30;7.37;;;;;;;16.30;88.85;102191.88;6137085;29;20322;-70
2023/10/01 07:42:28;;;;;;;7.97;6.53;;;;;;;16.22;88.61;102190.88;6136840;28;20231;-70
2023/10/01 07:45:55;;;;;;;12.37;7.87;;;;;;;16.35;87.78;102189.63;6130878;29;20234;-71
2023/10/01 07:49:18;;;;;;;9.00;7.10;;;;;;;16.16;87.72;102183.28;6150434;28;20238;-70
2023/10/01 07:52:40;;;;;;;9.87;7.50;;;;;;;16.32;87.95;102181.72;6135851;29;20824;-70
2023/10/01 07:56:07;;;;;;;8.37;6.77;;;;;;;16.48;87.32;102186.63;6133595;28;20244;-70
2023/10/01 07:59:34;;;;;;;8.68;7.25;;;;;;;16.56;86.95;102182.19;6139779;29;20318;-70
2023/10/01 08:06:41;;;;;;;7.00;6.00;;;;;;;16.62;86.17;102183.50;6142368;28;20235;-71
2023/10/01 08:10:04;;;;;;;11.67;7.57;;;;;;;16.53;86.10;102176.19;6141733;29;20792;-70
2023/10/01 08:13:26;;;;;;;11.17;7.40;;;;;;;16.70;85.85;102178.19;6135111;28;20231;-70
2023/10/01 08:16:51;;;;;;;7.53;5.40;;;;;;;16.70;85.77;102187.22;6144067;28;20231;-69
2023/10/01 08:20:17;;;;;;;9.57;5.77;;;;;;;17.00;84.96;102179.91;6137468;29;20310;-70
2023/10/01 08:23:45;;;;;;;9.30;5.93;;;;;;;16.86;84.92;102181.19;6138456;29;20251;-70
2023/10/01 08:27:12;;;;;;;9.00;6.03;;;;;;;16.97;84.66;102189.22;6134441;28;20652;-70
2023/10/01 08:30:39;;;;;;;7.80;6.13;;;;;;;17.22;83.39;102182.28;6134835;28;20242;-71
2023/10/01 08:34:22;;;;;;;7.87;6.07;;;;;;;17.37;82.28;102175.34;6138393;28;20232;-70
2023/10/01 08:37:49;;;;;;;6.47;5.80;;;;;;;17.58;81.00;102186.94;6137383;28;20254;-70
2023/10/01 08:41:11;;;;;;;7.30;5.37;;;;;;;17.45;80.53;102189.97;6137321;28;20258;-70
2023/10/01 08:44:33;;;;;;;7.38;4.97;;;;;;;17.40;79.62;102197.72;6138655;28;20235;-70
2023/10/01 08:47:59;;;;;;;6.28;4.35;;;;;;;17.50;79.65;102186.84;6131134;28;20238;-70
2023/10/01 08:51:21;;;;;;;11.20;4.70;;;;;;;17.16;80.35;102186.47;6139029;28;20274;-71
2023/10/01 08:54:44;;;;;;;9.60;5.47;;;;;;;17.19;80.45;102177.13;6135460;29;20544;-70
2023/10/01 08:58:15;;;;;;;4.77;4.10;;;;;;;17.24;80.32;102169.34;6131745;29;20236;-69
2023/10/01 09:01:37;;;;;;;4.97;4.43;;;;;;;17.08;80.07;102178.16;6137764;29;20874;-70
2023/10/01 09:05:07;;;;;;;7.55;5.07;;;;;;;17.27;79.79;102185.44;6133488;28;20236;-69
2023/10/01 09:08:31;;;;;;;6.78;4.45;;;;;;;17.55;79.20;102181.78;6131142;28;20230;-70
2023/10/01 09:11:58;;;;;;;6.55;4.90;;;;;;;17.58;78.90;102181.50;6124931;28;20492;-70
2023/10/01 09:15:27;;;;;;;8.05;4.65;;;;;;;17.55;78.79;102176.31;6138011;29;20623;-71
2023/10/01 09:19:03;;;;;;;6.60;4.43;;;;;;;17.58;78.62;102176.88;6137092;28;20238;-70
2023/10/01 09:22:40;;;;;;;4.47;3.60;;;;;;;17.49;79.75;102169.59;6127436;28;20234;-71
2023/10/01 09:26:01;;;;;;;7.15;5.13;;;;;;;17.46;79.60;102169.00;6128106;28;20255;-70
2023/10/01 09:29:23;;;;;;;7.13;4.40;;;;;;;17.51;79.71;102169.44;6130023;29;20630;-71
2023/10/01 09:32:51;;;;;;;7.50;5.13;;;;;;;17.49;79.37;102171.44;6135613;28;20255;-70
2023/10/01 09:36:27;;;;;;;6.05;4.20;;;;;;;17.32;79.88;102170.34;6132417;28;20227;-70
2023/10/01 09:39:55;;;;;;;8.20;4.67;;;;;;;17.51;79.45;102177.63;6137820;29;20231;-70
2023/10/01 09:43:24;;;;;;;7.97;5.25;;;;;;;17.46;79.14;102193.53;6134965;29;20231;-69
2023/10/01 09:46:46;;;;;;;8.57;6.20;;;;;;;17.31;79.16;102184.97;6133023;29;20231;-70
2023/10/01 09:50:15;;;;;;;7.90;5.18;;;;;;;17.43;78.92;102182.94;6145844;28;20231;-70
2023/10/01 09:53:48;;;;;;;11.40;6.25;;;;;;;17.44;78.93;102192.81;6127540;29;20231;-71
2023/10/01 09:57:12;;;;;;;7.30;5.70;;;;;;;17.43;79.01;102199.28;6137058;28;20527;-71
2023/10/01 10:00:40;;;;;;;9.87;7.07;;;;;;;17.44;79.58;102204.59;6135181;29;20231;-71
2023/10/01 10:04:04;;;;;;;7.13;4.95;;;;;;;17.22;80.26;102206.81;6131124;28;20227;-70
2023/10/01 10:07:26;;;;;;;7.28;5.28;;;;;;;17.20;81.37;102204.22;6131339;28;20235;-70
2023/10/01 10:10:49;;;;;;;7.90;6.10;;;;;;;17.08;82.10;102213.59;6134285;29;20239;-72
2023/10/01 10:14:56;;;;;;;10.85;6.25;;;;;;;16.89;83.21;102199.97;6137253;28;20231;-70
2023/10/01 10:18:18;;;;;;;12.17;6.10;;;;;;;17.31;83.00;102186.84;6139605;28;20239;-70
2023/10/01 10:22:10;;;;;;;6.35;4.53;;;;;;;17.61;81.67;102191.25;6138515;29;20243;-71
2023/10/01 10:25:31;;;;;;;8.48;5.63;;;;;;;17.65;81.07;102177.13;6125049;28;20231;-70
2023/10/01 10:28:54;;;;;;;8.10;4.93;;;;;;;17.50;81.33;102186.84;6134953;29;20231;-70
2023/10/01 10:32:16;;;;;;;8.70;4.82;;;;;;;17.96;80.20;102175.00;6140847;28;20526;-70
2023/10/01 10:35:46;;;;;;;12.05;5.03;;;;;;;18.05;80.18;102171.31;6136387;29;20238;-70
2023/10/01 10:39:15;;;;;;;8.38;4.47;;;;;;;18.44;78.59;102169.25;6141126;28;20326;-70
2023/10/01 10:42:36;;;;;;;6.65;4.55;;;;;;;20.15;73.60;102160.97;6133265;28;20310;-70
2023/10/01 10:46:01;;;;;;;9.55;5.22;;;;;;;19.63;74.03;102165.72;6141646;28;20235;-71
2023/10/01 10:49:50;;;;;;;8.32;4.60;;;;;;;18.75;75.62;102173.28;6131253;28;20235;-70
2023/10/01 10:53:15;;;;;;;5.35;3.63;;;;;;;18.49;77.01;102165.03;6138301;29;20329;-70
2023/10/01 10:56:40;;;;;;;7.45;3.80;;;;;;;18.21;77.66;102179.72;6135577;28;20227;-70
2023/10/01 11:00:01;;;;;;;7.53;3.83;;;;;;;17.77;78.57;102189.59;6143340;29;20227;-70
2023/10/01 11:03:41;;;;;;;5.95;3.40;;;;;;;17.63;79.95;102173.69;6133737;29;20238;-70
2023/10/01 11:07:04;;;;;;;8.13;4.47;;;;;;;17.68;80.64;102173.25;6134007;29;20228;-70
2023/10/01 11:10:27;;;;;;;8.43;5.38;;;;;;;17.70;80.66;102179.41;6137018;28;20254;-70
2023/10/01 11:13:58;;;;;;;7.82;3.90;;;;;;;17.61;81.20;102185.78;6132915;29;20236;-69
2023/10/01 11:17:22;;;;;;;6.45;4.38;;;;;;;18.28;80.10;102165.28;6134027;28;20545;-70
2023/10/01 11:20:45;;;;;;;7.38;4.88;;;;;;;18.86;76.66;102159.38;6140516;29;20633;-71
2023/10/01 11:24:08;;;;;;;10.13;5.38;;;;;;;18.90;76.54;102158.88;6134886;28;20231;-70
2023/10/01 11:27:43;;;;;;;8.68;4.15;;;;;;;18.85;77.09;102150.31;6138633;29;20239;-70
2023/10/01 11:31:17;;;;;;;8.45;4.75;;;;;;;17.81;80.33;102157.41;6136060;28;20269;-69
2023/10/01 11:34:45;;;;;;;10.38;5.03;;;;;;;17.60;83.21;102159.50;6132895;29;20231;-70
2023/10/01 11:38:12;;;;;;;6.22;4.90;;;;;;;17.54;84.67;102142.72;6135850;29;20343;-69
2023/10/01 11:41:43;;;;;;;6.53;5.90;;;;;;;17.13;87.17;102153.16;6123466;28;20569;-70
2023/10/01 11:45:28;;;;;;;11.73;6.55;;;;;;;17.10;88.33;102145.31;6138671;28;20223;-69
2023/10/01 11:48:57;;;;;;;6.78;5.22;;;;;;;16.77;90.65;102142.06;6135961;28;20482;-70
2023/10/01 11:52:21;;;;;;;9.70;5.43;;;;;;;16.72;91.88;102133.47;6141653;28;20246;-69
2023/10/01 11:55:42;;;;;;;10.77;5.63;;;;;;;16.92;92.92;102136.19;6133833;29;20227;-69
2023/10/01 11:59:08;;;;;;;10.27;6.45;;;;;;;16.77;95.50;102141.22;6143846;28;20235;-69
2023/10/01 12:02:32;;;;;;;9.65;6.78;;;;;;;16.39;97.95;102130.31;6139916;28;20235;-70
2023/10/01 12:05:56;;;;;;;7.97;6.10;;;;;;;16.35;99.67;102135.19;6139409;29;20223;-70
2023/10/01 12:09:18;;;;;;;7.15;5.35;;;;;;;16.48;100.00;102132.19;6143054;28;20239;-70
2023/10/01 12:12:39;;;;;;;12.07;8.20;;;;;;;16.65;100.00;102124.16;6133595;28;20235;-69
2023/10/01 12:16:03;;;;;;;6.88;5.22;;;;;;;16.94;100.00;102124.09;6129453;29;20644;-70
2023/10/01 12:19:24;;;;;;;11.43;6.90;;;;;;;16.78;100.00;102115.69;6129929;29;20276;-70
2023/10/01 12:22:45;;;;;;;9.18;6.05;;;;;;;16.77;100.00;102120.25;6138565;28;20270;-69
2023/10/01 12:29:44;;;;;;;10.10;5.50;;;;;;;16.36;100.00;102126.00;6136076;29;20234;-70
2023/10/01 12:33:10;;;;;;;9.80;5.22;;;;;;;16.35;100.00;102120.72;6131293;28;20231;-70
2023/10/01 12:36:33;;;;;;;7.27;5.13;;;;;;;16.23;100.00;102116.41;6134996;29;20247;-69
2023/10/01 12:40:13;;;;;;;5.30;4.53;;;;;;;16.30;100.00;102121.13;6140382;28;20239;-70
2023/10/01 12:43:41;;;;;;;5.97;4.43;;;;;;;16.22;100.00;102131.00;6142155;28;20569;-70
2023/10/01 12:47:02;;;;;;;6.10;4.23;;;;;;;16.22;100.00;102136.44;6136789;28;20302;-71
2023/10/01 12:50:27;;;;;;;8.10;5.17;;;;;;;16.06;100.00;102150.63;6147964;28;20346;-70
2023/10/01 12:53:53;;;;;;;4.67;4.27;;;;;;;16.21;100.00;102142.91;6140504;28;20227;-70
2023/10/01 12:57:18;;;;;;;5.00;4.35;;;;;;;16.05;100.00;102150.72;6141930;29;20239;-71
2023/10/01 13:00:45;;;;;;;6.60;5.18;;;;;;;16.15;100.00;102138.88;6139671;28;20231;-69
2023/10/01 13:04:21;;;;;;;5.47;4.32;;;;;;;15.99;100.00;102125.84;6137630;29;20235;-70
2023/10/01 13:07:45;;;;;;;6.18;5.60;;;;;;;16.38;100.00;102132.16;6129887;29;20219;-69
2023/10/01 13:11:05;;;;;;;6.70;5.50;;;;;;;16.23;100.00;102116.41;6138772;28;20263;-71
2023/10/01 13:14:29;;;;;;;7.60;5.35;;;;;;;16.32;100.00;102129.13;6141223;29;20268;-69
2023/10/01 13:18:01;;;;;;;7.47;6.63;;;;;;;16.35;100.00;102126.16;6307530;27;20907;-69
2023/10/01 13:21:27;;;;;;;5.67;5.07;;;;;;;16.31;100.00;102120.09;6283678;28;20829;-69
2023/10/01 13:24:53;;;;;;;6.10;5.20;;;;;;;16.47;100.00;102116.81;6284388;28;20231;-69
2023/10/01 13:28:19;;;;;;;8.03;6.10;;;;;;;16.38;100.00;102113.09;6289418;28;20609;-69
2023/10/01 13:31:43;;;;;;;9.23;7.53;;;;;;;16.57;100.00;102113.13;6293981;28;20236;-70
2023/10/01 13:35:31;;;;;;;7.03;5.85;;;;;;;16.62;100.00;102099.97;6301610;28;20264;-69
2023/10/01 13:39:12;;;;;;;8.32;6.78;;;;;;;16.63;100.00;102093.50;6270296;28;20317;-70
2023/10/01 14:11:45;;;;;;;8.23;6.20;;;;;;;16.80;100.00;102083.72;6292439;27;20223;-71
2023/10/01 14:15:20;;;;;;;6.87;5.80;;;;;;;16.64;100.00;102070.72;6286898;27;20235;-70
2023/10/01 14:18:53;;;;;;;7.60;6.30;;;;;;;16.59;100.00;102080.31;6309224;27;20223;-69
2023/10/01 14:22:19;;;;;;;7.20;6.50;;;;;;;16.65;100.00;102077.88;6297567;28;20545;-69
2023/10/01 14:25:52;;;;;;;12.97;7.40;;;;;;;16.56;100.00;102075.16;6281893;28;20489;-70
2023/10/01 14:29:22;;;;;;;6.77;6.07;;;;;;;16.63;100.00;102063.53;6262491;28;20239;-69
2023/10/01 14:32:44;;;;;;;11.27;7.20;;;;;;;16.50;100.00;102067.59;6261435;28;20267;-69
2023/10/01 14:36:06;;;;;;;9.90;7.87;;;;;;;16.62;100.00;102069.13;6286338;28;20269;-69
2023/10/01 14:39:30;;;;;;;8.07;7.00;;;;;;;16.65;100.00;102060.66;6280255;28;20256;-70
2023/10/01 14:42:58;;;;;;;10.97;6.50;;;;;;;16.82;100.00;102049.00;6270904;28;20220;-70
2023/10/01 14:46:23;;;;;;;8.47;6.43;;;;;;;16.89;100.00;102054.72;6262894;28;20235;-70
2023/10/01 14:49:43;;;;;;;8.60;6.67;;;;;;;16.96;100.00;102039.53;6254886;28;20217;-70
2023/10/01 14:53:04;;;;;;;8.13;6.27;;;;;;;17.17;100.00;102031.94;6263379;28;20231;-70
2023/10/01 14:56:28;;;;;;;11.63;7.63;;;;;;;17.25;100.00;102041.09;6262279;28;20314;-69
2023/10/01 14:59:48;;;;;;;14.07;9.90;;;;;;;17.63;100.00;102050.97;6261159;28;20240;-69
2023/10/01 15:03:11;;;;;;;11.95;7.07;;;;;;;17.58;100.00;102047.00;6263007;28;20228;-70
2023/10/01 15:06:36;;;;;;;9.95;8.20;;;;;;;17.26;100.00;102048.28;6258163;28;20232;-69
2023/10/01 15:10:05;;;;;;;9.47;6.30;;;;;;;17.18;100.00;102047.31;6266151;28;20764;-70
2023/10/01 15:13:35;;;;;;;9.30;7.60;;;;;;;17.23;100.00;102043.09;6254615;28;20228;-70
2023/10/01 15:16:56;;;;;;;10.20;6.45;;;;;;;17.30;100.00;102032.47;6254445;28;20258;-69
2023/10/01 15:20:27;;;;;;;7.85;7.05;;;;;;;17.29;100.00;102028.88;6276525;28;20239;-69
2023/10/01 15:23:50;;;;;;;9.73;7.10;;;;;;;17.45;100.00;102031.81;6279486;28;20231;-69
2023/10/01 15:27:12;;;;;;;12.23;8.27;;;;;;;17.37;100.00;102023.53;6285212;28;20235;-70
2023/10/01 15:30:35;;;;;;;10.95;7.20;;;;;;;17.32;100.00;102033.16;6281503;28;20266;-70
2023/10/01 15:34:01;;;;;;;10.85;7.78;;;;;;;17.44;100.00;102030.09;6281511;28;20228;-70
2023/10/01 15:37:23;;;;;;;12.15;6.85;;;;;;;17.54;100.00;102025.47;6291987;28;20239;-70
2023/10/01 15:40:51;;;;;;;11.27;6.63;;;;;;;17.55;100.00;102007.25;6284443;28;20247;-70
2023/10/01 15:44:13;;;;;;;8.55;6.75;;;;;;;17.52;100.00;102024.75;6279503;28;20333;-71
2023/10/01 15:47:36;;;;;;;10.25;7.18;;;;;;;17.55;100.00;102018.16;6279981;28;20318;-70
2023/10/01 15:51:02;;;;;;;8.48;6.07;;;;;;;17.60;100.00;102009.50;6284231;28;20235;-71
2023/10/01 15:54:24;;;;;;;10.05;6.53;;;;;;;17.58;100.00;102010.50;6284534;28;20219;-70
2023/10/01 15:57:53;;;;;;;12.27;7.72;;;;;;;17.58;100.00;101996.88;6283229;28;20259;-70
2023/10/01 16:01:23;;;;;;;8.25;6.85;;;;;;;17.56;100.00;102006.25;6284211;28;20235;-70
2023/10/01 16:04:45;;;;;;;9.88;7.05;;;;;;;17.60;100.00;102001.34;6261420;28;20219;-71
2023/10/01 16:08:07;;;;;;;17.13;8.52;;;;;;;17.53;100.00;102003.81;6256040;28;20312;-70
2023/10/01 16:11:33;;;;;;;10.32;6.25;;;;;;;17.51;100.00;102009.44;6255603;28;22938;-70
2023/10/01 16:14:56;;;;;;;8.90;6.40;;;;;;;17.49;100.00;102005.09;6257292;28;20637;-71
2023/10/01 16:18:17;;;;;;;9.68;7.40;;;;;;;17.50;100.00;102004.13;6259715;28;20243;-70
2023/10/01 16:21:42;;;;;;;6.85;5.97;;;;;;;17.47;100.00;101999.81;6254877;28;20227;-69
2023/10/01 16:25:03;;;;;;;10.05;6.28;;;;;;;17.50;100.00;102004.97;6256531;28;20235;-69
2023/10/01 16:28:26;;;;;;;8.52;7.20;;;;;;;17.52;100.00;102002.94;6256243;28;20243;-70
2023/10/01 16:31:47;;;;;;;10.20;6.68;;;;;;;17.53;100.00;102007.41;6258466;28;20609;-70
2023/10/01 16:35:17;;;;;;;9.18;7.18;;;;;;;17.54;100.00;102011.00;6256054;28;20235;-70